OOCL California — VRWC8 — position and weather

sailwx.info

Track history (hours):
 
Tides and Currents Weather Stations Pressure Air Temp Water Temp Dewpoint Dewpoint Depression Visibility Wind Speed Wind Dir Waves Ship Positions

OOCL California

Last reported at 2014-Sep-01 08:08 UTC. Time now 2014-Sep-01 11:44 UTC.
Position N 29°05' E 122°35'.

Length 276 m; beam 40 m; draft 14 m.

Type: Cargo ship. MMSI: 477704000.

Date/timePositionNaut miles runAvg speedWind from/ knotsBaromVisibWave heightAir tempDewpointWater temp
2014-Sep-01 08:08N 29°05' E 122°35'4216.0
2014-Sep-01 05:30N 29°43' E 122°56'1716.0
2014-Sep-01 04:27N 29°59' E 123°04'1716.1
2014-Sep-01 03:23N 30°16' E 123°06'2916.0
2014-Sep-01 01:33N 30°45' E 123°00'2217.6
2014-Sep-01 00:17N 31°05' E 122°50'1216.7
2014-Aug-31 23:32N 31°06' E 122°35'10 9.8
2014-Aug-31 22:32N 31°06' E 122°24'4113.8
2014-Aug-31 19:33N 31°21' E 121°39'4 3.8
2014-Aug-31 18:30N 31°23' E 121°34'0 0.0
2014-Aug-31 17:30N 31°23' E 121°34'0 0.0
2014-Aug-31 16:30N 31°23' E 121°34'0 0.0
2014-Aug-31 15:30N 31°23' E 121°34'0 0.0
2014-Aug-31 14:30N 31°23' E 121°34'0 0.0
2014-Aug-31 13:24N 31°23' E 121°34'0 0.0
2014-Aug-31 12:30N 31°23' E 121°34'0 0.0
2014-Aug-31 11:24N 31°23' E 121°34'0 0.0
2014-Aug-31 10:30N 31°23' E 121°34'0 0.0
2014-Aug-31 09:30N 31°23' E 121°34'0 0.0
2014-Aug-31 08:24N 31°23' E 121°34'0 0.0
2014-Aug-31 07:30N 31°23' E 121°34'0 0.0
2014-Aug-31 06:19N 31°23' E 121°34'2 2.1
2014-Aug-31 05:33N 31°23' E 121°36'4 3.6
2014-Aug-31 04:27N 31°20' E 121°40'0 0.0
2014-Aug-31 03:33N 31°20' E 121°40'0 0.0
2014-Aug-31 02:30N 31°20' E 121°40'0 0.0
2014-Aug-31 01:32N 31°20' E 121°40'0 0.0
2014-Aug-31 00:32N 31°20' E 121°40'0 0.0
2014-Aug-30 23:31N 31°20' E 121°40'0 0.0
2014-Aug-30 22:33N 31°20' E 121°40'0 0.0
2014-Aug-30 21:33N 31°20' E 121°40'0 0.0
2014-Aug-30 20:33N 31°20' E 121°40'0 0.0
2014-Aug-30 19:33N 31°20' E 121°40'0 0.0
2014-Aug-30 18:33N 31°20' E 121°40'0 0.2
2014-Aug-30 17:33N 31°20' E 121°40'10 9.9
2014-Aug-30 16:33N 31°17' E 121°51'2410.6
2014-Aug-30 14:19N 31°07' E 122°16'7 9.6
2014-Aug-30 13:32N 31°07' E 122°25'1010.0
2014-Aug-30 12:29N 31°07' E 122°37'2010.4
2014-Aug-30 10:33N 30°52' E 122°54'1211.9
2014-Aug-30 09:33N 30°42' E 122°59'1313.0
2014-Aug-30 08:33N 30°29' E 123°04'1312.9
2014-Aug-30 07:33N 30°16' E 123°05'7113.2
2014-Aug-30 02:11N 29°09' E 122°39'40813.3
2014-Aug-28 19:32N 22°45' E 120°04'1212.2
2014-Aug-28 18:33N 22°35' E 120°10'8 8.5
2014-Aug-28 17:33N 22°34' E 120°19'1 0.8
2014-Aug-28 16:25N 22°34' E 120°19'0 0.0
2014-Aug-28 15:31N 22°34' E 120°19'0 0.1
2014-Aug-28 14:25N 22°34' E 120°19'0 0.0
2014-Aug-28 10:13N 22°34' E 120°19'0 0.1
2014-Aug-28 09:25N 22°34' E 120°19'0 0.0
2014-Aug-28 08:19N 22°34' E 120°19'0 0.0
2014-Aug-28 07:25N 22°34' E 120°19'0 0.1
2014-Aug-28 06:31N 22°34' E 120°19'0 0.0
2014-Aug-28 05:25N 22°34' E 120°19'0 0.1
2014-Aug-28 04:31N 22°34' E 120°19'0 0.0
2014-Aug-28 03:19N 22°34' E 120°19'1 1.4
2014-Aug-28 02:33N 22°33' E 120°19'6 6.2
2014-Aug-28 01:33N 22°31' E 120°13'8 8.3
2014-Aug-28 00:33N 22°24' E 120°09'1111.0
2014-Aug-27 23:33N 22°13' E 120°12'  
Track history (hours):
 
Tides and Currents Weather Stations Pressure Air Temp Water Temp Dewpoint Dewpoint Depression Visibility Wind Speed Wind Dir Waves Ship Positions

OOCL California

Last reported at 2014-Sep-01 08:08 UTC. Time now 2014-Sep-01 11:44 UTC.
Position N 29°05' E 122°35'.

Length 276 m; beam 40 m; draft 14 m.

Type: Cargo ship. MMSI: 477704000.

Date/timePositionNaut miles runAvg speedWind from/ knotsBaromVisibWave heightAir tempDewpointWater temp
2014-Sep-01 08:08N 29°05' E 122°35'4216.0
2014-Sep-01 05:30N 29°43' E 122°56'1716.0
2014-Sep-01 04:27N 29°59' E 123°04'1716.1
2014-Sep-01 03:23N 30°16' E 123°06'2916.0
2014-Sep-01 01:33N 30°45' E 123°00'2217.6
2014-Sep-01 00:17N 31°05' E 122°50'1216.7
2014-Aug-31 23:32N 31°06' E 122°35'10 9.8
2014-Aug-31 22:32N 31°06' E 122°24'4113.8
2014-Aug-31 19:33N 31°21' E 121°39'4 3.8
2014-Aug-31 18:30N 31°23' E 121°34'0 0.0
2014-Aug-31 17:30N 31°23' E 121°34'0 0.0
2014-Aug-31 16:30N 31°23' E 121°34'0 0.0
2014-Aug-31 15:30N 31°23' E 121°34'0 0.0
2014-Aug-31 14:30N 31°23' E 121°34'0 0.0
2014-Aug-31 13:24N 31°23' E 121°34'0 0.0
2014-Aug-31 12:30N 31°23' E 121°34'0 0.0
2014-Aug-31 11:24N 31°23' E 121°34'0 0.0
2014-Aug-31 10:30N 31°23' E 121°34'0 0.0
2014-Aug-31 09:30N 31°23' E 121°34'0 0.0
2014-Aug-31 08:24N 31°23' E 121°34'0 0.0
2014-Aug-31 07:30N 31°23' E 121°34'0 0.0
2014-Aug-31 06:19N 31°23' E 121°34'2 2.1
2014-Aug-31 05:33N 31°23' E 121°36'4 3.6
2014-Aug-31 04:27N 31°20' E 121°40'0 0.0
2014-Aug-31 03:33N 31°20' E 121°40'0 0.0
2014-Aug-31 02:30N 31°20' E 121°40'0 0.0
2014-Aug-31 01:32N 31°20' E 121°40'0 0.0
2014-Aug-31 00:32N 31°20' E 121°40'0 0.0
2014-Aug-30 23:31N 31°20' E 121°40'0 0.0
2014-Aug-30 22:33N 31°20' E 121°40'0 0.0
2014-Aug-30 21:33N 31°20' E 121°40'0 0.0
2014-Aug-30 20:33N 31°20' E 121°40'0 0.0
2014-Aug-30 19:33N 31°20' E 121°40'0 0.0
2014-Aug-30 18:33N 31°20' E 121°40'0 0.2
2014-Aug-30 17:33N 31°20' E 121°40'10 9.9
2014-Aug-30 16:33N 31°17' E 121°51'2410.6
2014-Aug-30 14:19N 31°07' E 122°16'7 9.6
2014-Aug-30 13:32N 31°07' E 122°25'1010.0
2014-Aug-30 12:29N 31°07' E 122°37'2010.4
2014-Aug-30 10:33N 30°52' E 122°54'1211.9
2014-Aug-30 09:33N 30°42' E 122°59'1313.0
2014-Aug-30 08:33N 30°29' E 123°04'1312.9
2014-Aug-30 07:33N 30°16' E 123°05'7113.2
2014-Aug-30 02:11N 29°09' E 122°39'40813.3
2014-Aug-28 19:32N 22°45' E 120°04'1212.2
2014-Aug-28 18:33N 22°35' E 120°10'8 8.5
2014-Aug-28 17:33N 22°34' E 120°19'1 0.8
2014-Aug-28 16:25N 22°34' E 120°19'0 0.0
2014-Aug-28 15:31N 22°34' E 120°19'0 0.1
2014-Aug-28 14:25N 22°34' E 120°19'0 0.0
2014-Aug-28 10:13N 22°34' E 120°19'0 0.1
2014-Aug-28 09:25N 22°34' E 120°19'0 0.0
2014-Aug-28 08:19N 22°34' E 120°19'0 0.0
2014-Aug-28 07:25N 22°34' E 120°19'0 0.1
2014-Aug-28 06:31N 22°34' E 120°19'0 0.0
2014-Aug-28 05:25N 22°34' E 120°19'0 0.1
2014-Aug-28 04:31N 22°34' E 120°19'0 0.0
2014-Aug-28 03:19N 22°34' E 120°19'1 1.4
2014-Aug-28 02:33N 22°33' E 120°19'6 6.2
2014-Aug-28 01:33N 22°31' E 120°13'8 8.3
2014-Aug-28 00:33N 22°24' E 120°09'1111.0
2014-Aug-27 23:33N 22°13' E 120°12'  

Dump ship's entire track history